createdAt,value
2019-05-06T00:00:53.386Z,94.13
2019-05-06T00:01:40.377Z,94.23
2019-05-06T00:02:40.293Z,93.28
2019-05-06T00:03:40.329Z,93.37
2019-05-06T00:04:40.127Z,93.66
2019-05-06T00:05:40.044Z,94.89
2019-05-06T00:06:39.964Z,95.64
2019-05-06T00:07:39.948Z,96.02
2019-05-06T00:08:39.795Z,95.55
2019-05-06T00:09:39.754Z,95.17
2019-05-06T00:10:39.638Z,94.70
2019-05-06T00:11:39.673Z,94.32
2019-05-06T00:12:39.465Z,94.04
2019-05-06T00:13:39.476Z,93.94
2019-05-06T00:14:39.293Z,93.75
2019-05-06T00:15:39.285Z,93.18
2019-05-06T00:16:39.131Z,95.07
2019-05-06T00:17:39.091Z,96.02
2019-05-06T00:18:38.962Z,97.53
2019-05-06T00:19:39.001Z,98.20
2019-05-06T00:20:38.804Z,98.01
2019-05-06T00:21:38.820Z,98.20
2019-05-06T00:22:38.624Z,98.10
2019-05-06T00:23:38.624Z,97.34
2019-05-06T00:24:38.466Z,97.44
2019-05-06T00:25:38.389Z,97.25
2019-05-06T00:26:38.295Z,97.44
2019-05-06T00:27:38.239Z,98.29
2019-05-06T00:28:38.137Z,97.06
2019-05-06T00:29:38.150Z,94.89
2019-05-06T00:30:37.966Z,92.52
2019-05-06T00:31:37.961Z,91.10
2019-05-06T00:32:37.789Z,91.77
2019-05-06T00:33:37.773Z,92.33
2019-05-06T00:34:37.630Z,92.52
2019-05-06T00:35:37.577Z,92.90
2019-05-06T00:36:37.462Z,93.66
2019-05-06T00:37:37.490Z,94.79
2019-05-06T00:38:37.306Z,96.40
2019-05-06T00:39:37.303Z,96.59
2019-05-06T00:40:37.130Z,97.25
2019-05-06T00:41:37.109Z,98.20
2019-05-06T00:42:36.961Z,98.33
2019-05-06T00:43:36.915Z,98.90
2019-05-06T00:44:36.793Z,99.38
2019-05-06T00:45:36.828Z,99.99
2019-05-06T00:46:36.629Z,99.47
2019-05-06T00:47:36.637Z,99.38
2019-05-06T00:48:36.455Z,99.19
2019-05-06T00:49:36.386Z,99.47
2019-05-06T00:50:36.294Z,99.38
2019-05-06T00:51:36.256Z,99.00
2019-05-06T00:52:36.125Z,97.11
2019-05-06T00:53:36.067Z,93.80
2019-05-06T00:54:35.962Z,92.85
2019-05-06T00:55:35.978Z,92.29
2019-05-06T00:56:35.791Z,91.05
2019-05-06T00:57:35.791Z,90.77
2019-05-06T00:58:35.626Z,91.05
2019-05-06T00:59:35.544Z,90.96
2019-05-06T01:00:35.453Z,92.76
2019-05-06T01:01:35.406Z,94.56
2019-05-06T01:02:35.311Z,97.39
2019-05-06T01:03:35.210Z,99.47
2019-05-06T01:04:35.225Z,99.76
2019-05-06T01:05:35.039Z,99.99
2019-05-06T01:06:34.956Z,99.99
2019-05-06T01:07:34.934Z,99.95
2019-05-06T01:08:35.057Z,98.71
2019-05-06T01:09:34.707Z,97.39
2019-05-06T01:10:34.630Z,97.58
2019-05-06T01:11:34.687Z,98.33
2019-05-06T01:12:34.694Z,98.90
2019-05-06T01:13:35.096Z,99.76
2019-05-06T01:14:35.211Z,99.99
2019-05-06T01:15:34.418Z,99.99
2019-05-06T01:16:34.617Z,99.99
2019-05-06T01:17:34.039Z,99.99
2019-05-06T01:18:34.154Z,99.99
2019-05-06T01:19:34.275Z,99.99
2019-05-06T01:20:34.005Z,99.99
2019-05-06T01:21:34.239Z,99.99
2019-05-06T01:22:34.187Z,99.99
2019-05-06T01:23:34.242Z,99.99
2019-05-06T01:24:34.467Z,99.99
2019-05-06T01:25:34.588Z,99.99
2019-05-06T01:26:33.871Z,99.99
2019-05-06T01:27:33.767Z,99.99
2019-05-06T01:28:34.098Z,99.99
2019-05-06T01:29:34.753Z,99.99
2019-05-06T01:30:33.705Z,99.99
2019-05-06T01:31:40.594Z,99.99
2019-05-06T01:32:34.536Z,99.99
2019-05-06T01:33:34.962Z,99.99
2019-05-06T01:34:34.011Z,99.99
2019-05-06T01:35:32.524Z,99.99
2019-05-06T01:36:34.312Z,99.99
2019-05-06T01:37:34.591Z,99.99
2019-05-06T01:38:33.993Z,99.99
2019-05-06T01:39:34.019Z,99.99
2019-05-06T01:40:32.191Z,99.99
2019-05-06T01:41:33.886Z,99.99
2019-05-06T01:42:34.270Z,99.99
2019-05-06T01:43:31.905Z,99.99
2019-05-06T01:44:33.792Z,99.99
2019-05-06T01:45:31.691Z,99.19
2019-05-06T01:46:33.826Z,98.81
2019-05-06T01:47:31.518Z,98.24
2019-05-06T01:48:33.581Z,97.39
2019-05-06T01:49:31.434Z,96.92
2019-05-06T01:50:31.273Z,96.35
2019-05-06T01:51:31.184Z,96.83
2019-05-06T01:52:31.147Z,97.30
2019-05-06T01:53:31.021Z,97.39
2019-05-06T01:54:30.936Z,97.20
2019-05-06T01:55:30.964Z,96.73
2019-05-06T01:56:30.769Z,96.92
2019-05-06T01:57:30.682Z,97.01
2019-05-06T01:58:30.678Z,96.64
2019-05-06T01:59:30.516Z,95.88
2019-05-06T02:00:30.430Z,96.07
2019-05-06T02:01:30.354Z,97.01
2019-05-06T02:02:30.266Z,98.05
2019-05-06T02:03:30.179Z,98.90
2019-05-06T02:04:30.278Z,99.19
2019-05-06T02:05:30.012Z,99.99
2019-05-06T02:06:29.927Z,99.99
2019-05-06T02:07:29.922Z,99.99
2019-05-06T02:08:29.756Z,99.99
2019-05-06T02:09:29.676Z,99.99
2019-05-06T02:10:29.636Z,99.99
2019-05-06T02:11:29.505Z,99.99
2019-05-06T02:12:29.423Z,99.99
2019-05-06T02:13:29.339Z,99.99
2019-05-06T02:14:29.365Z,99.99
2019-05-06T02:15:29.167Z,99.99
2019-05-06T02:16:29.170Z,99.99
2019-05-06T02:17:29.003Z,99.99
2019-05-06T02:18:28.921Z,99.99
2019-05-06T02:19:28.888Z,99.99
2019-05-06T02:20:28.752Z,99.99
2019-05-06T02:21:28.670Z,99.99
2019-05-06T02:22:28.694Z,96.83
2019-05-06T02:23:28.524Z,93.75
2019-05-06T02:24:28.420Z,92.52
2019-05-06T02:25:28.409Z,92.52
2019-05-06T02:26:28.242Z,93.94
2019-05-06T02:27:28.169Z,95.45
2019-05-06T02:28:28.120Z,97.91
2019-05-06T02:29:27.999Z,99.61
2019-05-06T02:30:27.914Z,99.99
2019-05-06T02:31:27.937Z,99.99
2019-05-06T02:32:31.318Z,99.99
2019-05-06T02:33:27.655Z,99.99
2019-05-06T02:34:27.659Z,99.99
2019-05-06T02:35:27.488Z,99.99
2019-05-06T02:36:27.412Z,99.99
2019-05-06T02:37:27.366Z,99.99
2019-05-06T02:38:35.631Z,99.99
2019-05-06T02:39:27.157Z,99.99
2019-05-06T02:40:27.081Z,99.99
2019-05-06T02:41:26.991Z,99.99
2019-05-06T02:42:26.902Z,99.99
2019-05-06T02:43:26.822Z,99.99
2019-05-06T02:44:26.800Z,99.99
2019-05-06T02:45:26.661Z,99.99
2019-05-06T02:46:26.613Z,99.99
2019-05-06T02:47:26.495Z,99.99
2019-05-06T02:48:26.399Z,99.99
2019-05-06T02:49:26.317Z,99.99
2019-05-06T02:50:26.331Z,99.99
2019-05-06T02:51:26.145Z,99.99
2019-05-06T02:52:26.066Z,99.99
2019-05-06T02:53:25.977Z,99.99
2019-05-06T02:54:25.895Z,99.99
2019-05-06T02:55:25.813Z,99.99
2019-05-06T02:56:25.740Z,99.99
2019-05-06T02:57:25.655Z,99.99
2019-05-06T02:58:25.667Z,99.99
2019-05-06T02:59:25.474Z,99.99
2019-05-06T03:00:25.391Z,99.99
2019-05-06T03:01:25.380Z,99.99
2019-05-06T03:02:37.922Z,99.99
2019-05-06T03:03:25.143Z,99.99
2019-05-06T03:04:25.096Z,99.99
2019-05-06T03:05:24.968Z,99.99
2019-05-06T03:06:24.894Z,99.99
2019-05-06T03:07:24.800Z,99.99
2019-05-06T03:08:24.811Z,99.42
2019-05-06T03:09:24.716Z,99.71
2019-05-06T03:10:24.909Z,99.80
2019-05-06T03:11:24.527Z,99.71
2019-05-06T03:12:24.437Z,99.99
2019-05-06T03:13:24.302Z,99.99
2019-05-06T03:14:24.241Z,99.99
2019-05-06T03:15:24.316Z,99.80
2019-05-06T03:16:24.048Z,99.23
2019-05-06T03:17:24.056Z,99.61
2019-05-06T03:18:24.009Z,98.95
2019-05-06T03:19:24.204Z,98.10
2019-05-06T03:20:23.760Z,98.10
2019-05-06T03:21:24.691Z,97.81
2019-05-06T03:22:27.709Z,98.19
2019-05-06T03:23:23.820Z,98.10
2019-05-06T03:24:23.767Z,99.42
2019-05-06T03:25:24.132Z,99.99
2019-05-06T03:26:23.620Z,99.99
2019-05-06T03:27:23.580Z,99.99
2019-05-06T03:28:23.059Z,99.99
2019-05-06T03:29:25.317Z,99.99
2019-05-06T03:30:25.443Z,99.99
2019-05-06T03:31:26.067Z,99.99
2019-05-06T03:32:29.885Z,99.99
2019-05-06T03:33:47.409Z,99.99
2019-05-06T03:34:49.228Z,99.99
2019-05-06T03:35:36.124Z,99.99
2019-05-06T03:36:27.116Z,99.99
2019-05-06T03:37:23.875Z,99.99
2019-05-06T03:38:22.980Z,99.99
2019-05-06T03:39:23.257Z,99.99
2019-05-06T03:40:23.117Z,99.99
2019-05-06T03:41:26.095Z,99.99
2019-05-06T03:42:23.029Z,99.99
2019-05-06T03:43:23.335Z,99.99
2019-05-06T03:44:23.991Z,99.99
2019-05-06T03:45:23.658Z,99.99
2019-05-06T03:46:23.243Z,99.99
2019-05-06T03:47:23.503Z,99.99
2019-05-06T03:48:23.814Z,99.99
2019-05-06T03:49:23.820Z,99.99
2019-05-06T03:50:23.812Z,99.99
2019-05-06T03:51:23.335Z,99.99
2019-05-06T03:52:23.192Z,99.99
2019-05-06T03:53:23.232Z,99.99
2019-05-06T03:54:23.189Z,99.99
2019-05-06T03:55:23.459Z,99.99
2019-05-06T03:56:23.608Z,99.99
2019-05-06T03:57:23.203Z,99.99
2019-05-06T03:58:26.356Z,99.99
2019-05-06T03:59:23.140Z,99.99
2019-05-06T04:00:23.496Z,99.99
2019-05-06T04:01:20.370Z,98.76
2019-05-06T04:02:20.165Z,99.33
2019-05-06T04:03:24.568Z,99.23
2019-05-06T04:04:19.989Z,98.38
2019-05-06T04:05:19.986Z,98.38
2019-05-06T04:06:19.831Z,99.42
2019-05-06T04:07:19.795Z,99.99
2019-05-06T04:08:20.367Z,99.99
2019-05-06T04:09:19.588Z,99.99
2019-05-06T04:10:19.508Z,99.99
2019-05-06T04:11:19.403Z,99.99
2019-05-06T04:12:19.322Z,99.99
2019-05-06T04:13:19.234Z,99.99
2019-05-06T04:14:19.163Z,99.99
2019-05-06T04:15:19.140Z,99.99
2019-05-06T04:16:18.986Z,99.99
2019-05-06T04:17:18.911Z,99.99
2019-05-06T04:18:18.844Z,99.99
2019-05-06T04:19:18.730Z,99.99
2019-05-06T04:20:18.757Z,99.99
2019-05-06T04:21:18.663Z,99.99
2019-05-06T04:22:18.474Z,99.99
2019-05-06T04:23:18.393Z,99.99
2019-05-06T04:24:18.381Z,99.99
2019-05-06T04:25:18.219Z,99.99
2019-05-06T04:26:18.182Z,99.99
2019-05-06T04:27:18.094Z,99.99
2019-05-06T04:28:17.966Z,99.99
2019-05-06T04:29:18.000Z,99.99
2019-05-06T04:30:17.914Z,99.99
2019-05-06T04:31:17.713Z,99.99
2019-05-06T04:32:17.716Z,99.99
2019-05-06T04:33:17.858Z,99.99
2019-05-06T04:34:19.732Z,99.99
2019-05-06T04:35:17.428Z,99.99
2019-05-06T04:36:17.334Z,99.99
2019-05-06T04:37:17.210Z,99.99
2019-05-06T04:38:17.248Z,99.99
2019-05-06T04:39:17.043Z,99.99
2019-05-06T04:40:17.055Z,99.99
2019-05-06T04:41:16.873Z,99.99
2019-05-06T04:42:16.792Z,99.99
2019-05-06T04:43:16.702Z,99.99
2019-05-06T04:44:16.671Z,99.99
2019-05-06T04:45:17.303Z,99.99
2019-05-06T04:46:16.931Z,99.99
2019-05-06T04:47:16.383Z,99.99
2019-05-06T04:48:16.395Z,99.99
2019-05-06T04:49:16.210Z,99.99
2019-05-06T04:50:16.211Z,99.99
2019-05-06T04:51:16.105Z,99.99
2019-05-06T04:52:15.941Z,99.99
2019-05-06T04:53:15.913Z,99.99
2019-05-06T04:54:15.773Z,99.99
2019-05-06T04:55:15.748Z,99.99
2019-05-06T04:56:15.606Z,99.99
2019-05-06T04:57:15.522Z,99.99
2019-05-06T04:58:15.445Z,99.99
2019-05-06T04:59:15.441Z,99.99
2019-05-06T05:00:15.346Z,99.99
2019-05-06T05:01:15.829Z,99.99
2019-05-06T05:02:15.177Z,99.99
2019-05-06T05:03:15.060Z,99.99
2019-05-06T05:04:28.445Z,99.99
2019-05-06T05:05:14.850Z,99.99
2019-05-06T05:06:14.764Z,99.99
2019-05-06T05:07:14.676Z,99.99
2019-05-06T05:08:14.687Z,99.99
2019-05-06T05:09:17.259Z,99.99
2019-05-06T05:10:14.427Z,99.99
2019-05-06T05:11:14.397Z,99.99
2019-05-06T05:12:14.304Z,99.99
2019-05-06T05:13:14.174Z,99.99
2019-05-06T05:14:14.113Z,99.99
2019-05-06T05:15:14.120Z,99.99
2019-05-06T05:16:13.920Z,99.99
2019-05-06T05:17:13.845Z,99.99
2019-05-06T05:18:13.837Z,99.99
2019-05-06T05:19:13.667Z,99.99
2019-05-06T05:20:13.642Z,99.99
2019-05-06T05:21:13.548Z,99.99
2019-05-06T05:22:13.413Z,99.99
2019-05-06T05:23:13.357Z,99.99
2019-05-06T05:24:13.362Z,99.99
2019-05-06T05:25:13.161Z,99.99
2019-05-06T05:26:13.171Z,99.99
2019-05-06T05:27:13.076Z,99.99
2019-05-06T05:28:13.206Z,99.99
2019-05-06T05:29:12.888Z,99.99
2019-05-06T05:30:12.791Z,99.99
2019-05-06T05:31:12.657Z,99.99
2019-05-06T05:32:12.826Z,99.99
2019-05-06T05:33:12.608Z,99.99
2019-05-06T05:34:12.767Z,99.99
2019-05-06T05:35:12.855Z,99.99
2019-05-06T05:36:12.510Z,99.99
2019-05-06T05:37:12.240Z,99.99
2019-05-06T05:38:13.057Z,99.99
2019-05-06T05:39:12.514Z,99.99
2019-05-06T05:40:12.985Z,99.99
2019-05-06T05:41:12.148Z,99.99
2019-05-06T05:42:12.335Z,99.99
2019-05-06T05:43:11.780Z,99.99
2019-05-06T05:44:12.004Z,99.99
2019-05-06T05:45:12.859Z,99.99
2019-05-06T05:46:12.617Z,99.99
2019-05-06T05:47:12.364Z,99.99
2019-05-06T05:48:12.413Z,99.99
2019-05-06T05:49:12.020Z,99.99
2019-05-06T05:50:13.223Z,99.99
2019-05-06T05:51:12.766Z,99.99
2019-05-06T05:52:12.695Z,99.99
2019-05-06T05:53:12.066Z,99.99
2019-05-06T05:54:12.464Z,99.99
2019-05-06T05:55:12.136Z,99.99
2019-05-06T05:56:12.334Z,99.99
2019-05-06T05:57:11.881Z,99.99
2019-05-06T05:58:12.805Z,99.99
2019-05-06T05:59:12.133Z,99.99
2019-05-06T06:00:10.221Z,99.99
2019-05-06T06:01:12.476Z,99.99
2019-05-06T06:02:10.060Z,99.99
2019-05-06T06:03:09.974Z,99.99
2019-05-06T06:04:09.886Z,99.99
2019-05-06T06:05:09.865Z,99.99
2019-05-06T06:06:09.726Z,99.99
2019-05-06T06:07:09.767Z,99.99
2019-05-06T06:08:09.545Z,99.99
2019-05-06T06:09:09.464Z,99.99
2019-05-06T06:10:09.384Z,99.99
2019-05-06T06:11:09.492Z,99.99
2019-05-06T06:12:09.216Z,99.99
2019-05-06T06:13:09.199Z,99.99
2019-05-06T06:14:09.043Z,99.99
2019-05-06T06:15:08.963Z,99.99
2019-05-06T06:16:08.887Z,99.99
2019-05-06T06:17:08.918Z,99.99
2019-05-06T06:18:08.713Z,99.99
2019-05-06T06:19:08.830Z,99.99
2019-05-06T06:20:08.546Z,99.99
2019-05-06T06:21:18.701Z,99.99
2019-05-06T06:22:08.381Z,99.99
2019-05-06T06:23:08.447Z,99.99
2019-05-06T06:24:08.209Z,99.99
2019-05-06T06:25:08.264Z,99.99
2019-05-06T06:26:08.045Z,99.99
2019-05-06T06:27:12.529Z,99.99
2019-05-06T06:28:07.877Z,99.99
2019-05-06T06:29:07.976Z,99.99
2019-05-06T06:30:07.716Z,99.99
2019-05-06T06:31:07.785Z,99.99
2019-05-06T06:32:07.545Z,99.99
2019-05-06T06:33:07.596Z,99.99
2019-05-06T06:34:07.378Z,99.99
2019-05-06T06:35:11.491Z,99.99
2019-05-06T06:36:07.222Z,99.99
2019-05-06T06:37:07.315Z,99.99
2019-05-06T06:38:07.050Z,99.99
2019-05-06T06:39:07.021Z,99.99
2019-05-06T06:40:06.881Z,99.99
2019-05-06T06:41:06.934Z,99.99
2019-05-06T06:42:06.731Z,99.99
2019-05-06T06:43:06.844Z,99.99
2019-05-06T06:44:06.554Z,99.99
2019-05-06T06:45:06.656Z,99.91
2019-05-06T06:46:09.377Z,98.96
2019-05-06T06:47:06.366Z,97.64
2019-05-06T06:48:06.228Z,96.12
2019-05-06T06:49:06.278Z,95.45
2019-05-06T06:50:06.053Z,97.35
2019-05-06T06:51:06.182Z,95.84
2019-05-06T06:52:11.227Z,95.12
2019-05-06T06:53:05.806Z,95.60
2019-05-06T06:54:05.899Z,96.36
2019-05-06T06:55:05.643Z,95.60
2019-05-06T06:56:05.705Z,94.84
2019-05-06T06:57:09.166Z,93.80
2019-05-06T06:58:05.621Z,93.32
2019-05-06T06:59:05.312Z,95.22
2019-05-06T07:00:05.244Z,96.36
2019-05-06T07:01:05.149Z,95.22
2019-05-06T07:02:05.131Z,92.76
2019-05-06T07:03:04.983Z,91.42
2019-05-06T07:04:10.410Z,91.56
2019-05-06T07:05:04.817Z,92.04
2019-05-06T07:06:04.952Z,92.42
2019-05-06T07:07:04.655Z,91.47
2019-05-06T07:08:04.763Z,90.14
2019-05-06T07:09:04.491Z,89.29
2019-05-06T07:10:04.414Z,88.91
2019-05-06T07:11:04.478Z,87.58
2019-05-06T07:12:04.259Z,87.39
2019-05-06T07:13:04.407Z,86.91
2019-05-06T07:14:04.084Z,86.20
2019-05-06T07:15:04.094Z,85.44
2019-05-06T07:16:03.917Z,84.68
2019-05-06T07:17:03.903Z,83.26
2019-05-06T07:18:03.754Z,82.31
2019-05-06T07:19:03.716Z,83.16
2019-05-06T07:20:03.589Z,83.07
2019-05-06T07:21:05.367Z,83.07
2019-05-06T07:22:06.678Z,83.01
2019-05-06T07:23:03.438Z,83.59
2019-05-06T07:24:03.267Z,83.11
2019-05-06T07:25:03.744Z,82.54
2019-05-06T07:26:03.253Z,82.35
2019-05-06T07:27:03.123Z,81.49
2019-05-06T07:28:03.082Z,81.68
2019-05-06T07:29:05.946Z,81.59
2019-05-06T07:30:03.117Z,81.30
2019-05-06T07:31:17.550Z,81.49
2019-05-06T07:32:02.814Z,81.97
2019-05-06T07:33:03.640Z,81.97
2019-05-06T07:34:02.639Z,81.02
2019-05-06T07:35:02.500Z,80.55
2019-05-06T07:36:02.379Z,80.11
2019-05-06T07:37:03.501Z,80.30
2019-05-06T07:38:02.441Z,80.87
2019-05-06T07:39:04.010Z,80.49
2019-05-06T07:40:03.037Z,78.97
2019-05-06T07:41:04.707Z,79.44
2019-05-06T07:42:02.460Z,78.78
2019-05-06T07:43:02.275Z,79.06
2019-05-06T07:44:02.185Z,79.06
2019-05-06T07:45:06.505Z,78.59
2019-05-06T07:46:02.544Z,78.69
2019-05-06T07:47:03.575Z,80.58
2019-05-06T07:48:03.400Z,81.54
2019-05-06T07:49:03.266Z,81.77
2019-05-06T07:50:02.436Z,80.82
2019-05-06T07:51:03.040Z,80.63
2019-05-06T07:52:02.927Z,80.72
2019-05-06T07:53:02.389Z,79.68
2019-05-06T07:54:02.768Z,79.20
2019-05-06T07:55:02.573Z,78.16
2019-05-06T07:56:03.498Z,77.01
2019-05-06T07:57:02.438Z,77.01
2019-05-06T07:58:02.392Z,76.63
2019-05-06T07:59:00.510Z,75.78
2019-05-06T08:00:03.120Z,75.40
2019-05-06T08:01:02.744Z,75.49
2019-05-06T08:02:02.268Z,75.78
2019-05-06T08:03:02.320Z,76.10
2019-05-06T08:04:00.028Z,75.91
2019-05-06T08:05:02.409Z,76.10
2019-05-06T08:05:59.874Z,76.29
2019-05-06T08:06:59.790Z,77.15
2019-05-06T08:07:59.852Z,77.15
2019-05-06T08:08:59.630Z,76.29
2019-05-06T08:10:01.936Z,75.53
2019-05-06T08:10:59.567Z,74.52
2019-05-06T08:11:59.390Z,74.24
2019-05-06T08:12:59.333Z,73.47
2019-05-06T08:13:59.282Z,73.85
2019-05-06T08:14:59.166Z,74.71
2019-05-06T08:15:59.072Z,74.52
2019-05-06T08:16:59.072Z,73.95
2019-05-06T08:17:58.918Z,72.52
2019-05-06T08:18:58.831Z,73.28
2019-05-06T08:19:58.811Z,72.71
2019-05-06T08:20:58.671Z,72.42
2019-05-06T08:21:58.596Z,73.47
2019-05-06T08:22:58.595Z,74.24
2019-05-06T08:23:58.437Z,73.47
2019-05-06T08:24:58.356Z,73.47
2019-05-06T08:26:10.018Z,73.38
2019-05-06T08:26:58.205Z,73.38
2019-05-06T08:27:58.116Z,73.38
2019-05-06T08:28:58.157Z,74.04
2019-05-06T08:29:57.963Z,73.85
2019-05-06T08:30:57.878Z,74.33
2019-05-06T08:31:57.881Z,75.38
2019-05-06T08:32:57.717Z,75.85
2019-05-06T08:33:57.640Z,75.28
2019-05-06T08:34:57.686Z,73.85
2019-05-06T08:36:10.598Z,73.28
2019-05-06T08:36:57.401Z,72.90
2019-05-06T08:37:57.397Z,73.66
2019-05-06T08:38:57.240Z,73.57
2019-05-06T08:39:57.162Z,73.38
2019-05-06T08:40:57.215Z,73.38
2019-05-06T08:41:57.002Z,73.47
2019-05-06T08:42:56.922Z,73.76
2019-05-06T08:43:56.929Z,72.24
2019-05-06T08:44:56.771Z,72.90
2019-05-06T08:45:56.690Z,72.52
2019-05-06T08:46:56.748Z,72.33
2019-05-06T08:47:56.525Z,72.05
2019-05-06T08:48:56.446Z,72.33
2019-05-06T08:49:56.460Z,72.05
2019-05-06T08:50:56.292Z,72.33
2019-05-06T08:51:56.208Z,72.42
2019-05-06T08:52:56.236Z,72.71
2019-05-06T08:53:56.073Z,72.81
2019-05-06T08:54:55.973Z,72.42
2019-05-06T08:55:55.987Z,73.76
2019-05-06T08:56:55.810Z,73.57
2019-05-06T08:57:55.735Z,73.28
2019-05-06T08:58:55.803Z,73.66
2019-05-06T08:59:55.576Z,73.66
2019-05-06T09:00:57.504Z,74.14
2019-05-06T09:01:55.416Z,74.24
2019-05-06T09:02:55.337Z,73.85
2019-05-06T09:04:08.428Z,73.47
2019-05-06T09:04:55.178Z,73.95
2019-05-06T09:05:55.235Z,73.95
2019-05-06T09:06:55.099Z,73.57
2019-05-06T09:07:54.940Z,73.95
2019-05-06T09:08:56.805Z,74.62
2019-05-06T09:09:54.857Z,74.71
2019-05-06T09:10:54.714Z,74.24
2019-05-06T09:11:54.764Z,73.38
2019-05-06T09:12:54.673Z,73.28
2019-05-06T09:13:54.469Z,73.76
2019-05-06T09:14:54.436Z,74.43
2019-05-06T09:15:54.332Z,74.33
2019-05-06T09:16:54.343Z,73.47
2019-05-06T09:17:54.148Z,73.38
2019-05-06T09:18:54.069Z,74.43
2019-05-06T09:19:53.987Z,73.47
2019-05-06T09:20:54.012Z,73.19
2019-05-06T09:21:53.830Z,72.33
2019-05-06T09:22:53.826Z,72.62
2019-05-06T09:23:53.676Z,72.62
2019-05-06T09:24:53.595Z,72.42
2019-05-06T09:25:53.632Z,72.14
2019-05-06T09:26:53.434Z,72.14
2019-05-06T09:27:53.352Z,72.14
2019-05-06T09:28:53.350Z,72.52
2019-05-06T09:29:53.195Z,72.33
2019-05-06T09:30:53.114Z,72.46
2019-05-06T09:31:53.170Z,73.03
2019-05-06T09:32:52.961Z,72.27
2019-05-06T09:33:53.127Z,71.47
2019-05-06T09:34:53.067Z,71.95
2019-05-06T09:35:52.915Z,72.42
2019-05-06T09:36:54.951Z,72.42
2019-05-06T09:37:53.421Z,72.14
2019-05-06T09:38:53.024Z,71.76
2019-05-06T09:39:53.477Z,72.24
2019-05-06T09:40:52.614Z,71.86
2019-05-06T09:41:57.774Z,71.86
2019-05-06T09:42:52.257Z,72.52
2019-05-06T09:43:52.834Z,73.10
2019-05-06T09:44:54.147Z,73.85
2019-05-06T09:45:52.982Z,74.71
2019-05-06T09:46:53.141Z,75.19
2019-05-06T09:47:52.993Z,75.47
2019-05-06T09:48:52.734Z,75.67
2019-05-06T09:49:53.102Z,75.95
2019-05-06T09:50:53.784Z,76.61
2019-05-06T09:51:52.921Z,76.42
2019-05-06T09:52:52.872Z,76.90
2019-05-06T09:53:53.104Z,76.71
2019-05-06T09:54:53.480Z,76.90
2019-05-06T09:55:52.264Z,76.42
2019-05-06T09:56:53.262Z,75.38
2019-05-06T09:57:52.204Z,74.90
2019-05-06T09:58:52.991Z,74.99
2019-05-06T09:59:52.650Z,74.04
2019-05-06T10:00:50.743Z,74.04
2019-05-06T10:01:52.828Z,74.71
2019-05-06T10:02:52.754Z,74.04
2019-05-06T10:03:52.805Z,73.47
2019-05-06T10:04:52.236Z,73.57
2019-05-06T10:05:52.922Z,74.27
2019-05-06T10:06:57.140Z,73.41
2019-05-06T10:07:52.262Z,72.56
2019-05-06T10:08:50.245Z,72.85
2019-05-06T10:09:52.367Z,73.99
2019-05-06T10:10:58.739Z,74.75
2019-05-06T10:11:49.877Z,74.65
2019-05-06T10:12:49.788Z,74.27
2019-05-06T10:13:49.713Z,74.27
2019-05-06T10:14:49.776Z,73.51
2019-05-06T10:15:51.948Z,73.03
2019-05-06T10:16:49.476Z,72.65
2019-05-06T10:17:49.431Z,72.65
2019-05-06T10:18:49.493Z,71.55
2019-05-06T10:19:49.236Z,68.65
2019-05-06T10:20:49.302Z,67.64
2019-05-06T10:21:49.211Z,67.64
2019-05-06T10:22:49.009Z,67.93
2019-05-06T10:23:49.023Z,70.21
2019-05-06T10:24:49.029Z,70.25
2019-05-06T10:25:48.771Z,68.15
2019-05-06T10:26:48.837Z,67.68
2019-05-06T10:27:48.751Z,67.20
2019-05-06T10:28:48.538Z,66.53
2019-05-06T10:29:48.558Z,67.10
2019-05-06T10:30:48.557Z,66.24
2019-05-06T10:31:48.301Z,64.91
2019-05-06T10:32:48.361Z,65.48
2019-05-06T10:33:48.149Z,66.24
2019-05-06T10:34:48.052Z,65.00
2019-05-06T10:35:47.980Z,65.39
2019-05-06T10:36:47.906Z,66.15
2019-05-06T10:37:47.826Z,66.56
2019-05-06T10:38:47.893Z,64.91
2019-05-06T10:39:47.795Z,63.86
2019-05-06T10:40:59.738Z,64.15
2019-05-06T10:41:47.517Z,63.70
2019-05-06T10:42:47.435Z,65.23
2019-05-06T10:43:47.355Z,64.47
2019-05-06T10:44:47.424Z,63.99
2019-05-06T10:45:47.326Z,65.13
2019-05-06T10:46:47.148Z,62.65
2019-05-06T10:47:47.135Z,59.31
2019-05-06T10:48:47.140Z,59.53
2019-05-06T10:49:46.888Z,62.21
2019-05-06T10:50:46.952Z,61.54
2019-05-06T10:51:46.857Z,59.16
2019-05-06T10:52:46.647Z,60.78
2019-05-06T10:53:46.700Z,63.83
2019-05-06T10:54:46.492Z,63.92
2019-05-06T10:55:46.576Z,61.07
2019-05-06T10:56:53.795Z,59.92
2019-05-06T10:57:46.262Z,59.16
2019-05-06T10:58:46.329Z,58.87
2019-05-06T10:59:46.107Z,59.76
2019-05-06T11:00:46.029Z,59.76
2019-05-06T11:01:45.953Z,59.28
2019-05-06T11:02:46.010Z,58.61
2019-05-06T11:03:45.911Z,57.75
2019-05-06T11:04:45.716Z,58.33
2019-05-06T11:05:45.826Z,59.76
2019-05-06T11:06:45.730Z,58.42
2019-05-06T11:07:45.488Z,58.23
2019-05-06T11:08:45.541Z,59.28
2019-05-06T11:09:45.445Z,62.43
2019-05-06T11:10:45.810Z,60.04
2019-05-06T11:11:45.354Z,60.42
2019-05-06T11:12:45.265Z,59.38
2019-05-06T11:13:45.022Z,57.65
2019-05-06T11:14:45.069Z,55.65
2019-05-06T11:15:44.971Z,57.46
2019-05-06T11:16:44.803Z,57.09
2019-05-06T11:17:44.886Z,56.51
2019-05-06T11:18:44.787Z,55.43
2019-05-06T11:19:44.551Z,56.38
2019-05-06T11:20:44.595Z,56.67
2019-05-06T11:21:45.067Z,57.15
2019-05-06T11:22:44.324Z,57.06
2019-05-06T11:23:44.416Z,58.39
2019-05-06T11:24:44.316Z,59.63
2019-05-06T11:25:44.089Z,60.97
2019-05-06T11:26:44.126Z,62.24
2019-05-06T11:27:45.094Z,62.05
2019-05-06T11:28:43.856Z,59.76
2019-05-06T11:29:43.942Z,59.09
2019-05-06T11:30:43.855Z,57.75
2019-05-06T11:31:43.626Z,57.28
2019-05-06T11:32:44.562Z,56.32
2019-05-06T11:33:43.661Z,55.08
2019-05-06T11:34:43.399Z,55.08
2019-05-06T11:35:43.469Z,54.22
2019-05-06T11:36:43.377Z,53.65
2019-05-06T11:37:49.698Z,53.84
2019-05-06T11:38:43.347Z,56.23
2019-05-06T11:39:43.259Z,57.65
2019-05-06T11:40:42.930Z,60.14
2019-05-06T11:41:59.609Z,59.69
2019-05-06T11:42:43.685Z,58.64
2019-05-06T11:43:42.909Z,59.22
2019-05-06T11:44:44.000Z,60.10
2019-05-06T11:45:42.864Z,61.25
2019-05-06T11:46:42.924Z,61.82
2019-05-06T11:47:42.535Z,59.63
2019-05-06T11:48:43.208Z,57.36
2019-05-06T11:49:44.069Z,57.55
2019-05-06T11:50:42.770Z,55.13
2019-05-06T11:51:43.506Z,55.04
2019-05-06T11:52:43.395Z,53.96
2019-05-06T11:53:42.063Z,54.34
2019-05-06T11:54:42.365Z,53.77
2019-05-06T11:55:41.777Z,53.51
2019-05-06T11:56:50.669Z,52.55
2019-05-06T11:57:44.536Z,51.41
2019-05-06T11:58:42.776Z,50.93
2019-05-06T11:59:43.333Z,52.26
2019-05-06T12:00:44.429Z,53.41
2019-05-06T12:01:43.427Z,53.32
2019-05-06T12:02:45.016Z,54.94
2019-05-06T12:03:42.727Z,55.32
2019-05-06T12:04:41.930Z,53.80
2019-05-06T12:05:41.837Z,53.41
2019-05-06T12:06:42.320Z,53.80
2019-05-06T12:07:43.279Z,53.86
2019-05-06T12:08:43.016Z,54.53
2019-05-06T12:09:40.713Z,54.25
2019-05-06T12:10:42.487Z,55.30
2019-05-06T12:11:42.910Z,55.58
2019-05-06T12:12:42.528Z,54.50
2019-05-06T12:13:42.368Z,53.74
2019-05-06T12:14:42.739Z,53.74
2019-05-06T12:15:40.242Z,53.84
2019-05-06T12:16:40.195Z,53.17
2019-05-06T12:17:42.095Z,53.74
2019-05-06T12:18:42.105Z,54.41
2019-05-06T12:19:39.935Z,53.93
2019-05-06T12:20:39.995Z,53.08
2019-05-06T12:21:39.782Z,53.05
2019-05-06T12:22:42.172Z,53.05
2019-05-06T12:23:39.630Z,53.14
2019-05-06T12:24:39.550Z,53.33
2019-05-06T12:25:39.472Z,52.38
2019-05-06T12:26:39.526Z,52.38
2019-05-06T12:27:39.320Z,53.62
2019-05-06T12:28:39.366Z,54.96
2019-05-06T12:29:39.168Z,55.82
2019-05-06T12:30:39.086Z,55.05
2019-05-06T12:31:39.014Z,54.86
2019-05-06T12:32:39.058Z,54.86
2019-05-06T12:33:38.858Z,54.77
2019-05-06T12:34:38.969Z,53.72
2019-05-06T12:35:38.703Z,53.59
2019-05-06T12:36:38.627Z,53.41
2019-05-06T12:37:38.544Z,53.41
2019-05-06T12:38:38.584Z,53.59
2019-05-06T12:39:38.391Z,53.50
2019-05-06T12:40:38.497Z,53.69
2019-05-06T12:41:38.236Z,53.97
2019-05-06T12:42:38.171Z,54.93
2019-05-06T12:43:38.082Z,54.64
2019-05-06T12:44:38.234Z,54.45
2019-05-06T12:45:37.932Z,55.12
2019-05-06T12:46:38.028Z,55.21
2019-05-06T12:47:37.791Z,55.12
2019-05-06T12:48:37.690Z,55.88
2019-05-06T12:49:37.619Z,56.65
2019-05-06T12:50:37.751Z,57.50
2019-05-06T12:51:37.463Z,56.84